Time;durP1;ratioP1;P1;durP2;ratioP2;P2;SDS_P1;SDS_P2;PMS_P1;PMS_P2;Temp;Humidity;BMP_temperature;BMP_pressure;BME280_temperature;BME280_humidity;BME280_pressure;Samples;Min_cycle;Max_cycle;Signal;HPM_P1;HPM_P2
2023/07/12 00:01:36;;;;;;;6.18;2.78;;;20.80;83.50;;;;;;5033864;28;20037;-73
2023/07/12 00:04:02;;;;;;;7.68;3.28;;;20.90;83.50;;;;;;5033572;28;20470;-74
2023/07/12 00:06:36;;;;;;;5.63;2.80;;;20.90;82.90;;;;;;5034146;28;20538;-75
2023/07/12 00:09:03;;;;;;;5.28;3.03;;;21.00;82.90;;;;;;5033993;28;20052;-74
2023/07/12 00:11:29;;;;;;;8.02;2.70;;;21.10;82.80;;;;;;5035662;28;20470;-74
2023/07/12 00:13:55;;;;;;;6.03;3.03;;;21.10;83.00;;;;;;5034457;28;20026;-73
2023/07/12 00:16:34;;;;;;;7.57;3.10;;;21.10;82.40;;;;;;5033767;28;20025;-75
2023/07/12 00:18:59;;;;;;;5.30;3.33;;;21.10;80.60;;;;;;5033538;28;20060;-74
2023/07/12 00:21:27;;;;;;;6.30;3.22;;;20.70;81.10;;;;;;5033706;28;20037;-74
2023/07/12 00:23:55;;;;;;;6.60;3.70;;;20.60;82.00;;;;;;5033601;28;20151;-74
2023/07/12 00:26:24;;;;;;;7.97;3.50;;;20.30;83.20;;;;;;5033686;28;20021;-74
2023/07/12 00:28:50;;;;;;;8.15;3.55;;;20.30;83.40;;;;;;5033595;28;20025;-74
2023/07/12 00:31:15;;;;;;;7.47;3.75;;;20.20;83.40;;;;;;5033575;28;20488;-74
2023/07/12 00:33:41;;;;;;;8.48;4.00;;;20.20;84.00;;;;;;5033477;28;20018;-74
2023/07/12 00:36:22;;;;;;;6.85;3.55;;;20.20;84.70;;;;;;5033490;28;20466;-73
2023/07/12 00:38:48;;;;;;;6.40;3.28;;;20.10;85.10;;;;;;5033513;28;20087;-73
2023/07/12 00:41:51;;;;;;;6.15;3.58;;;20.10;84.90;;;;;;5033297;28;20059;-74
2023/07/12 00:44:23;;;;;;;7.88;3.40;;;20.00;84.40;;;;;;5033010;28;20049;-74
2023/07/12 00:46:52;;;;;;;6.07;3.17;;;20.00;84.30;;;;;;5033341;28;20018;-74
2023/07/12 00:49:18;;;;;;;7.68;3.45;;;20.10;84.60;;;;;;5033330;28;20025;-74
2023/07/12 00:52:04;;;;;;;5.47;3.13;;;20.20;84.50;;;;;;5033295;28;20026;-74
2023/07/12 00:54:53;;;;;;;5.70;3.33;;;20.30;83.70;;;;;;5033153;28;20029;-74
2023/07/12 00:57:20;;;;;;;8.48;3.00;;;20.50;84.40;;;;;;5025263;28;20026;-77
2023/07/12 00:59:45;;;;;;;6.25;3.28;;;20.60;84.30;;;;;;5033044;28;20030;-75
2023/07/12 01:02:13;;;;;;;6.25;2.95;;;20.70;84.30;;;;;;5033125;28;20388;-77
2023/07/12 01:04:43;;;;;;;6.82;3.10;;;20.80;84.40;;;;;;5031815;28;20026;-78
2023/07/12 01:07:10;;;;;;;7.85;2.95;;;20.80;84.00;;;;;;5033510;28;20083;-76
2023/07/12 01:09:35;;;;;;;6.13;2.90;;;20.90;83.50;;;;;;5034513;28;20355;-78
2023/07/12 01:12:01;;;;;;;5.90;2.67;;;20.90;82.30;;;;;;5033539;28;20029;-78
2023/07/12 01:14:27;;;;;;;5.10;2.90;;;20.90;82.20;;;;;;5033130;28;20021;-78
2023/07/12 01:17:03;;;;;;;5.40;2.60;;;20.90;81.20;;;;;;5031841;28;20080;-77
2023/07/12 01:19:31;;;;;;;5.85;2.80;;;20.90;81.30;;;;;;5032709;28;20440;-78
2023/07/12 01:21:57;;;;;;;5.00;2.83;;;20.90;81.40;;;;;;5032948;28;20116;-78
2023/07/12 01:24:25;;;;;;;7.28;3.30;;;20.80;82.50;;;;;;5032627;28;20025;-77
2023/07/12 01:26:56;;;;;;;5.63;2.83;;;20.80;81.60;;;;;;5032834;28;20036;-77
2023/07/12 01:29:22;;;;;;;9.40;3.15;;;20.80;81.50;;;;;;5032757;28;20025;-75
2023/07/12 01:31:49;;;;;;;5.18;2.95;;;20.80;81.50;;;;;;5032701;28;20029;-77
2023/07/12 01:34:16;;;;;;;4.93;2.92;;;20.90;81.10;;;;;;5032785;28;20032;-77
2023/07/12 01:36:42;;;;;;;8.02;2.70;;;20.90;80.20;;;;;;5032847;28;20021;-77
2023/07/12 01:39:08;;;;;;;4.45;2.85;;;20.90;79.60;;;;;;5032882;28;20029;-76
2023/07/12 01:41:33;;;;;;;6.03;2.88;;;20.90;79.50;;;;;;5032426;28;20033;-73
2023/07/12 01:43:59;;;;;;;6.90;3.10;;;21.00;78.90;;;;;;5032831;28;20421;-73
2023/07/12 01:46:26;;;;;;;5.82;2.55;;;20.90;78.50;;;;;;5031186;28;20623;-77
2023/07/12 01:48:51;;;;;;;4.97;2.38;;;21.00;78.50;;;;;;5032765;28;20414;-76
2023/07/12 01:51:19;;;;;;;6.68;3.00;;;20.90;78.40;;;;;;5032738;28;20024;-76
2023/07/12 01:53:45;;;;;;;6.80;2.60;;;20.90;78.30;;;;;;5032650;28;20425;-75
2023/07/12 01:56:12;;;;;;;7.22;2.75;;;20.90;78.10;;;;;;5032736;28;20021;-77
2023/07/12 01:58:39;;;;;;;6.97;2.90;;;20.90;78.00;;;;;;5032632;28;20021;-77
2023/07/12 02:01:04;;;;;;;3.15;2.50;;;20.90;78.00;;;;;;5032332;28;20091;-76
2023/07/12 02:03:30;;;;;;;5.03;3.00;;;20.90;77.80;;;;;;5032457;28;20026;-77
2023/07/12 02:05:56;;;;;;;7.45;3.00;;;21.00;77.50;;;;;;5032477;28;20478;-76
2023/07/12 02:08:22;;;;;;;5.07;2.47;;;21.00;76.90;;;;;;5032384;28;20043;-76
2023/07/12 02:10:48;;;;;;;5.25;2.42;;;21.10;77.50;;;;;;5032252;28;20037;-77
2023/07/12 02:13:14;;;;;;;2.75;2.00;;;21.10;77.10;;;;;;5032388;28;20028;-74
2023/07/12 02:15:40;;;;;;;7.80;2.70;;;21.00;76.80;;;;;;5032481;28;20083;-74
2023/07/12 02:18:06;;;;;;;7.85;3.28;;;21.00;77.40;;;;;;5032101;28;20108;-75
2023/07/12 02:20:32;;;;;;;7.10;2.97;;;21.00;77.00;;;;;;5032162;28;20092;-78
2023/07/12 02:22:58;;;;;;;5.22;2.60;;;21.00;77.80;;;;;;5034568;28;20104;-78
2023/07/12 02:25:24;;;;;;;6.00;2.80;;;21.10;77.80;;;;;;5036014;28;20061;-75
2023/07/12 02:27:50;;;;;;;4.20;2.50;;;21.10;76.80;;;;;;5035856;28;20029;-75
2023/07/12 02:30:20;;;;;;;9.70;3.50;;;21.20;76.50;;;;;;5035699;28;20378;-75
2023/07/12 02:32:46;;;;;;;7.38;3.30;;;21.10;72.30;;;;;;5035632;28;20017;-74
2023/07/12 02:35:12;;;;;;;5.97;3.00;;;21.10;73.10;;;;;;5035659;28;20117;-74
2023/07/12 02:37:38;;;;;;;7.50;2.78;;;21.10;71.40;;;;;;5035664;28;20029;-74
2023/07/12 02:40:05;;;;;;;7.65;3.10;;;21.10;71.60;;;;;;5035573;28;20682;-74
2023/07/12 02:42:31;;;;;;;8.18;2.90;;;21.20;70.80;;;;;;5035560;28;20040;-74
2023/07/12 02:44:57;;;;;;;6.78;2.80;;;21.20;70.70;;;;;;5035576;28;20029;-75
2023/07/12 02:47:23;;;;;;;6.97;2.78;;;21.30;70.90;;;;;;5035432;28;20121;-74
2023/07/12 02:49:48;;;;;;;6.65;2.80;;;21.30;70.70;;;;;;5035509;28;20033;-75
2023/07/12 02:52:14;;;;;;;8.18;2.63;;;21.30;71.40;;;;;;5035380;28;20030;-74
2023/07/12 02:54:39;;;;;;;11.10;3.22;;;21.40;72.00;;;;;;5035368;28;20488;-75
2023/07/12 02:57:09;;;;;;;9.55;3.08;;;21.40;71.30;;;;;;5035390;28;20033;-74
2023/07/12 02:59:34;;;;;;;6.63;2.70;;;21.40;71.30;;;;;;5035170;28;20025;-78
2023/07/12 03:02:00;;;;;;;9.10;2.72;;;21.40;69.70;;;;;;5035120;28;20113;-78
2023/07/12 03:04:25;;;;;;;4.75;2.45;;;21.50;69.90;;;;;;5035219;28;20022;-79
2023/07/12 03:06:51;;;;;;;6.68;2.60;;;21.50;69.60;;;;;;5035213;28;20033;-75
2023/07/12 03:09:17;;;;;;;6.82;2.90;;;21.70;69.20;;;;;;5033972;28;20466;-75
2023/07/12 03:11:49;;;;;;;6.03;2.60;;;21.70;70.20;;;;;;5034004;28;20029;-75
2023/07/12 03:14:19;;;;;;;4.40;2.50;;;21.80;71.10;;;;;;5034956;28;20033;-77
2023/07/12 03:16:45;;;;;;;8.65;2.83;;;21.80;72.10;;;;;;5033997;28;20018;-78
2023/07/12 03:19:12;;;;;;;9.48;2.80;;;21.80;71.20;;;;;;5034629;28;20102;-76
2023/07/12 03:21:38;;;;;;;8.25;2.40;;;21.80;69.30;;;;;;5034938;28;20125;-75
2023/07/12 03:24:04;;;;;;;8.13;2.75;;;21.80;70.70;;;;;;5034783;28;20079;-75
2023/07/12 03:26:30;;;;;;;4.97;2.50;;;21.80;71.50;;;;;;5034690;28;20497;-75
2023/07/12 03:28:56;;;;;;;9.23;3.30;;;21.80;70.60;;;;;;5034716;28;20057;-75
2023/07/12 03:31:21;;;;;;;7.53;2.70;;;21.70;68.90;;;;;;5034559;28;20052;-73
2023/07/12 03:33:48;;;;;;;7.38;2.78;;;21.70;68.10;;;;;;5033726;28;20030;-74
2023/07/12 03:36:15;;;;;;;7.47;2.97;;;21.70;68.80;;;;;;5034584;28;20029;-74
2023/07/12 03:38:40;;;;;;;6.85;2.83;;;21.50;69.80;;;;;;5034405;28;20063;-74
2023/07/12 03:41:08;;;;;;;6.40;3.13;;;21.50;69.80;;;;;;5034206;28;20033;-74
2023/07/12 03:43:34;;;;;;;8.65;3.40;;;21.50;69.10;;;;;;5034256;28;20025;-74
2023/07/12 03:46:00;;;;;;;7.63;2.88;;;21.50;69.50;;;;;;5034333;28;20041;-74
2023/07/12 03:48:26;;;;;;;9.25;3.78;;;21.50;69.20;;;;;;5034272;28;20028;-74
2023/07/12 03:50:55;;;;;;;8.10;3.58;;;21.60;69.60;;;;;;5034213;28;20026;-74
2023/07/12 03:53:22;;;;;;;7.28;3.60;;;21.60;69.50;;;;;;5034264;28;20474;-74
2023/07/12 03:55:48;;;;;;;6.82;3.60;;;21.70;69.60;;;;;;5034152;28;20029;-75
2023/07/12 03:58:22;;;;;;;8.55;3.15;;;21.80;68.90;;;;;;5034158;28;20443;-72
2023/07/12 04:00:49;;;;;;;9.77;3.75;;;21.90;70.10;;;;;;5033687;28;20046;-77
2023/07/12 04:03:20;;;;;;;6.60;3.33;;;22.00;69.80;;;;;;5034042;28;20021;-72
2023/07/12 04:05:50;;;;;;;7.00;3.28;;;22.30;69.00;;;;;;5033864;28;20018;-73
2023/07/12 04:08:16;;;;;;;8.68;3.70;;;22.40;68.50;;;;;;5032825;28;20087;-73
2023/07/12 04:10:42;;;;;;;8.35;3.72;;;22.50;67.80;;;;;;5033979;28;20036;-72
2023/07/12 04:13:08;;;;;;;7.10;3.58;;;22.60;67.30;;;;;;5033963;28;20441;-72
2023/07/12 04:15:35;;;;;;;7.40;3.30;;;22.80;67.80;;;;;;5033816;28;20100;-72
2023/07/12 04:18:02;;;;;;;8.05;3.08;;;22.90;66.60;;;;;;5033459;28;20041;-72
2023/07/12 04:20:28;;;;;;;10.25;3.72;;;23.00;66.70;;;;;;5033570;28;20048;-72
2023/07/12 04:22:53;;;;;;;7.43;2.90;;;23.10;66.60;;;;;;5033545;28;20021;-72
2023/07/12 04:25:20;;;;;;;6.50;3.28;;;23.10;66.80;;;;;;5033661;28;20075;-72
2023/07/12 04:27:45;;;;;;;7.57;3.58;;;23.00;66.50;;;;;;5033612;28;20022;-73
2023/07/12 04:30:13;;;;;;;10.88;3.35;;;23.10;66.60;;;;;;5033629;28;20036;-73
2023/07/12 04:32:39;;;;;;;6.82;3.40;;;23.20;66.70;;;;;;5033459;28;20048;-73
2023/07/12 04:35:05;;;;;;;7.43;3.08;;;23.20;66.80;;;;;;5033439;28;20072;-75
2023/07/12 04:37:31;;;;;;;7.65;3.90;;;23.10;67.20;;;;;;5033503;28;20470;-75
2023/07/12 04:39:57;;;;;;;6.93;3.47;;;23.10;67.50;;;;;;5034396;28;20026;-74
2023/07/12 04:42:22;;;;;;;9.73;3.60;;;23.00;67.60;;;;;;5073438;28;20046;-73
2023/07/12 04:44:48;;;;;;;5.55;2.97;;;23.00;68.40;;;;;;5054326;28;20036;-72
2023/07/12 04:47:17;;;;;;;6.45;3.50;;;22.90;68.50;;;;;;5053350;28;20021;-73
2023/07/12 04:49:45;;;;;;;8.75;3.85;;;22.90;68.60;;;;;;5053251;28;20017;-75
2023/07/12 04:52:11;;;;;;;8.85;3.97;;;23.00;67.90;;;;;;5053058;28;20098;-72
2023/07/12 04:54:39;;;;;;;9.80;3.67;;;23.10;67.60;;;;;;5053116;28;20049;-73
2023/07/12 04:57:06;;;;;;;6.47;3.83;;;23.20;67.20;;;;;;5053065;28;20035;-74
2023/07/12 04:59:31;;;;;;;10.18;4.35;;;23.20;67.40;;;;;;5052852;28;20021;-71
2023/07/12 05:01:57;;;;;;;13.30;4.47;;;23.20;66.50;;;;;;5053027;28;20059;-72
2023/07/12 05:04:22;;;;;;;12.95;4.90;;;23.00;67.30;;;;;;5052913;28;20031;-72
2023/07/12 05:06:48;;;;;;;9.35;4.70;;;22.80;68.00;;;;;;5052839;28;20181;-72
2023/07/12 05:09:14;;;;;;;7.57;4.32;;;22.60;69.20;;;;;;5052851;28;20527;-72
2023/07/12 05:11:39;;;;;;;8.70;4.85;;;22.50;69.70;;;;;;5052753;28;20078;-73
2023/07/12 05:14:05;;;;;;;9.70;5.03;;;22.40;69.90;;;;;;5052754;28;20032;-73
2023/07/12 05:16:30;;;;;;;7.47;4.82;;;22.40;70.70;;;;;;5052754;28;20025;-74
2023/07/12 05:18:56;;;;;;;10.57;5.53;;;22.40;71.00;;;;;;5052932;28;20437;-76
2023/07/12 05:21:24;;;;;;;9.90;5.38;;;22.40;71.80;;;;;;5051438;28;20033;-73
2023/07/12 05:23:49;;;;;;;11.98;5.68;;;22.30;72.50;;;;;;5054966;28;20370;-72
2023/07/12 05:26:15;;;;;;;11.23;5.70;;;22.20;72.90;;;;;;5052731;28;20025;-72
2023/07/12 05:28:41;;;;;;;9.02;5.40;;;22.30;73.20;;;;;;5052307;28;20036;-72
2023/07/12 05:31:08;;;;;;;9.40;5.43;;;22.40;72.80;;;;;;5052529;28;20083;-72
2023/07/12 05:33:34;;;;;;;6.18;4.72;;;22.50;72.70;;;;;;5051164;28;20021;-72
2023/07/12 05:36:01;;;;;;;11.45;5.63;;;22.40;72.60;;;;;;5051151;28;20078;-72
2023/07/12 05:38:27;;;;;;;8.32;5.03;;;22.60;72.50;;;;;;5050781;28;20116;-73
2023/07/12 05:40:53;;;;;;;6.43;4.53;;;22.60;72.60;;;;;;5052249;28;20065;-72
2023/07/12 05:43:23;;;;;;;8.18;4.60;;;22.70;72.40;;;;;;5052494;28;20025;-72
2023/07/12 05:45:48;;;;;;;12.57;4.53;;;22.90;72.10;;;;;;5051391;28;20025;-72
2023/07/12 05:48:14;;;;;;;7.38;4.25;;;22.90;72.30;;;;;;5052096;28;20075;-72
2023/07/12 05:50:39;;;;;;;9.52;4.13;;;22.80;71.70;;;;;;5050685;28;20112;-72
2023/07/12 05:53:05;;;;;;;8.07;4.43;;;22.60;72.30;;;;;;5051459;28;20029;-71
2023/07/12 05:55:31;;;;;;;8.13;4.50;;;22.60;72.90;;;;;;5051304;28;20017;-72
2023/07/12 05:57:57;;;;;;;5.28;4.45;;;22.60;73.30;;;;;;5053111;28;20028;-72
2023/07/12 06:00:23;;;;;;;8.73;4.57;;;22.60;72.80;;;;;;5055209;28;20036;-73
2023/07/12 06:02:48;;;;;;;8.57;4.70;;;22.70;72.50;;;;;;5056196;28;20386;-73
2023/07/12 06:05:14;;;;;;;9.15;4.72;;;22.80;72.30;;;;;;5056205;28;20060;-74
2023/07/12 06:07:41;;;;;;;9.48;4.55;;;22.70;72.70;;;;;;5055998;28;20024;-74
2023/07/12 06:10:08;;;;;;;10.52;5.05;;;22.60;73.50;;;;;;5056190;28;20025;-72
2023/07/12 06:12:34;;;;;;;7.78;5.00;;;22.60;73.00;;;;;;5054405;28;20086;-73
2023/07/12 06:14:59;;;;;;;11.15;4.97;;;22.50;73.50;;;;;;5056075;28;20033;-75
2023/07/12 06:17:25;;;;;;;12.98;5.57;;;22.50;73.60;;;;;;5055088;28;20116;-75
2023/07/12 06:19:50;;;;;;;9.63;4.82;;;22.30;74.50;;;;;;5054162;28;20060;-75
2023/07/12 06:22:16;;;;;;;10.90;4.43;;;22.30;74.00;;;;;;5054452;28;20029;-74
2023/07/12 06:24:42;;;;;;;13.68;4.85;;;22.20;74.20;;;;;;5054690;28;20513;-75
2023/07/12 06:27:07;;;;;;;7.55;4.65;;;22.10;74.50;;;;;;5054548;28;20048;-74
2023/07/12 06:29:33;;;;;;;8.50;4.50;;;22.10;73.90;;;;;;5054554;28;20021;-75
2023/07/12 06:31:58;;;;;;;10.80;5.00;;;22.10;74.70;;;;;;5054813;28;20025;-74
2023/07/12 06:34:27;;;;;;;8.77;4.65;;;22.00;75.40;;;;;;5054748;28;20032;-74
2023/07/12 06:36:53;;;;;;;10.73;4.93;;;22.00;74.70;;;;;;5054530;28;20106;-74
2023/07/12 06:39:19;;;;;;;10.93;4.20;;;22.00;74.30;;;;;;5054597;28;20079;-75
2023/07/12 06:41:44;;;;;;;11.43;5.65;;;22.10;74.30;;;;;;5053916;28;20029;-74
2023/07/12 06:44:10;;;;;;;9.82;4.93;;;22.20;74.10;;;;;;5054267;28;20029;-76
2023/07/12 06:46:36;;;;;;;8.45;4.72;;;22.20;73.60;;;;;;5054069;28;20029;-75
2023/07/12 06:49:01;;;;;;;9.68;4.72;;;22.30;74.10;;;;;;5055760;28;20064;-75
2023/07/12 06:51:27;;;;;;;12.75;5.15;;;22.30;73.60;;;;;;5054273;28;20032;-75
2023/07/12 06:53:52;;;;;;;11.23;5.38;;;22.30;73.80;;;;;;5054408;28;20385;-75
2023/07/12 06:56:18;;;;;;;13.07;5.00;;;22.30;73.70;;;;;;5054250;28;20025;-74
2023/07/12 06:58:44;;;;;;;12.32;5.43;;;22.30;73.40;;;;;;5054031;28;20074;-74
2023/07/12 07:01:10;;;;;;;11.90;5.65;;;22.30;73.30;;;;;;5053783;28;20044;-75
2023/07/12 07:03:35;;;;;;;8.75;4.90;;;22.40;73.70;;;;;;5053842;28;20025;-75
2023/07/12 07:06:01;;;;;;;11.75;5.63;;;22.60;73.00;;;;;;5053494;28;20047;-75
2023/07/12 07:08:27;;;;;;;9.90;4.72;;;22.60;72.50;;;;;;5052964;28;20418;-75
2023/07/12 07:10:53;;;;;;;10.63;5.28;;;22.70;72.30;;;;;;5053537;28;20021;-76
2023/07/12 07:13:24;;;;;;;10.68;4.82;;;22.90;72.20;;;;;;5053874;28;20458;-75
2023/07/12 07:15:50;;;;;;;10.63;4.95;;;22.90;71.90;;;;;;5053943;28;20033;-75
2023/07/12 07:18:16;;;;;;;9.32;4.88;;;23.20;71.10;;;;;;5053146;28;20069;-76
2023/07/12 07:20:43;;;;;;;10.77;4.93;;;23.40;71.10;;;;;;5053450;28;20132;-77
2023/07/12 07:23:09;;;;;;;8.13;4.20;;;23.70;69.90;;;;;;5053446;28;20029;-76
2023/07/12 07:25:36;;;;;;;12.18;5.18;;;24.00;69.00;;;;;;5058145;28;20484;-76
2023/07/12 07:28:01;;;;;;;13.68;5.22;;;24.10;67.90;;;;;;5074954;28;20029;-76
2023/07/12 07:30:27;;;;;;;6.90;4.63;;;24.20;67.80;;;;;;5074042;28;20028;-77
2023/07/12 07:32:54;;;;;;;12.65;5.50;;;24.30;67.20;;;;;;5073699;28;20031;-76
2023/07/12 07:35:21;;;;;;;8.60;5.15;;;24.50;66.80;;;;;;5073228;28;20074;-75
2023/07/12 07:37:48;;;;;;;12.05;5.57;;;24.40;66.60;;;;;;5073450;28;20477;-76
2023/07/12 07:40:14;;;;;;;8.02;5.22;;;24.30;66.90;;;;;;5073066;28;20067;-76
2023/07/12 07:42:40;;;;;;;13.93;5.78;;;24.30;68.00;;;;;;5072928;28;20031;-76
2023/07/12 07:45:09;;;;;;;11.40;5.68;;;24.10;67.90;;;;;;5072582;28;20027;-76
2023/07/12 07:47:35;;;;;;;8.60;6.00;;;24.20;67.20;;;;;;5072551;28;20047;-76
2023/07/12 07:50:01;;;;;;;8.55;5.32;;;24.30;67.90;;;;;;5072954;28;20052;-76
2023/07/12 07:52:26;;;;;;;9.02;5.05;;;24.30;65.60;;;;;;5072422;28;20063;-76
2023/07/12 07:54:53;;;;;;;7.05;5.32;;;24.40;66.40;;;;;;5072802;28;20119;-76
2023/07/12 07:57:18;;;;;;;8.00;5.35;;;24.40;65.20;;;;;;5072936;28;20156;-76
2023/07/12 07:59:44;;;;;;;12.70;5.45;;;24.60;65.10;;;;;;5072393;28;20520;-76
2023/07/12 08:02:11;;;;;;;11.73;5.55;;;24.70;64.30;;;;;;5072924;28;20078;-75
2023/07/12 08:04:39;;;;;;;8.90;5.03;;;24.80;64.90;;;;;;5072605;28;20035;-75
2023/07/12 08:07:06;;;;;;;8.60;5.43;;;24.90;63.70;;;;;;5072775;28;20025;-76
2023/07/12 08:09:35;;;;;;;8.98;4.60;;;25.00;62.40;;;;;;5072156;28;20031;-75
2023/07/12 08:12:00;;;;;;;8.73;4.88;;;25.00;63.00;;;;;;5072528;28;20016;-75
2023/07/12 08:14:26;;;;;;;7.28;4.32;;;25.10;60.90;;;;;;5072340;28;20086;-76
2023/07/12 08:16:52;;;;;;;7.55;4.75;;;25.20;57.80;;;;;;5072125;28;20043;-75
2023/07/12 08:19:18;;;;;;;6.80;4.38;;;25.30;58.30;;;;;;5072874;28;20048;-76
2023/07/12 08:21:43;;;;;;;12.15;4.72;;;25.50;57.70;;;;;;5072162;28;20062;-75
2023/07/12 08:24:09;;;;;;;5.82;4.32;;;25.80;56.60;;;;;;5071760;28;20017;-75
2023/07/12 08:26:36;;;;;;;8.05;5.07;;;25.90;56.10;;;;;;5071763;28;20051;-75
2023/07/12 08:29:02;;;;;;;7.97;4.68;;;25.90;56.90;;;;;;5071911;28;20404;-75
2023/07/12 08:31:27;;;;;;;10.25;4.35;;;25.90;56.90;;;;;;5071729;28;20016;-75
2023/07/12 08:33:55;;;;;;;8.30;4.45;;;25.70;57.60;;;;;;5072308;28;20029;-75
2023/07/12 08:36:21;;;;;;;10.38;5.10;;;25.60;58.40;;;;;;5071395;28;20013;-75
2023/07/12 08:38:46;;;;;;;9.07;4.95;;;25.60;58.40;;;;;;5071528;28;20021;-75
2023/07/12 08:41:17;;;;;;;10.18;4.60;;;25.70;58.80;;;;;;5071555;28;20094;-75
2023/07/12 08:43:43;;;;;;;12.35;5.00;;;25.50;60.60;;;;;;5071888;28;20024;-75
2023/07/12 08:46:18;;;;;;;7.47;4.88;;;25.40;59.30;;;;;;5071752;28;20024;-75
2023/07/12 08:48:44;;;;;;;9.32;5.32;;;25.30;60.50;;;;;;5071512;28;20049;-75
2023/07/12 08:51:24;;;;;;;13.73;5.80;;;25.20;63.00;;;;;;5071728;28;20071;-76
2023/07/12 08:53:50;;;;;;;8.82;5.43;;;25.20;62.10;;;;;;5071944;28;20028;-77
2023/07/12 08:56:18;;;;;;;11.20;4.72;;;25.30;61.90;;;;;;5071741;28;20025;-77
2023/07/12 08:58:47;;;;;;;14.88;5.47;;;25.30;62.90;;;;;;5073211;28;20016;-77
2023/07/12 09:01:16;;;;;;;8.88;5.38;;;25.20;63.20;;;;;;5071576;28;20532;-76
2023/07/12 09:03:42;;;;;;;9.50;5.45;;;25.20;63.00;;;;;;5071480;28;20472;-75
2023/07/12 09:06:13;;;;;;;8.93;5.60;;;25.00;63.70;;;;;;5071331;28;20135;-76
2023/07/12 09:08:43;;;;;;;9.23;5.68;;;24.90;64.40;;;;;;5071399;28;20052;-75
2023/07/12 09:11:19;;;;;;;7.65;5.35;;;24.90;64.60;;;;;;5071198;28;20024;-75
2023/07/12 09:13:46;;;;;;;;;;;25.00;64.00;;;;;;5071690;28;20021;-76
2023/07/12 09:16:29;;;;;;;10.30;5.45;;;24.90;64.20;;;;;;5071295;28;19909;-75
2023/07/12 09:18:57;;;;;;;12.32;6.25;;;25.00;63.00;;;;;;5071290;28;20484;-75
2023/07/12 09:21:27;;;;;;;8.23;5.05;;;25.00;63.40;;;;;;5070936;28;20037;-76
2023/07/12 09:23:58;;;;;;;10.02;5.65;;;25.40;63.10;;;;;;5071546;28;20469;-75
2023/07/12 09:26:27;;;;;;;12.02;5.93;;;25.60;62.10;;;;;;5070940;28;20082;-76
2023/07/12 09:28:57;;;;;;;11.15;5.68;;;25.90;60.40;;;;;;5071385;28;20044;-76
2023/07/12 09:31:28;;;;;;;9.00;5.80;;;25.80;60.20;;;;;;5054168;28;20028;-76
2023/07/12 09:33:59;;;;;;;14.35;5.68;;;25.70;61.20;;;;;;5075027;28;20020;-75
2023/07/12 09:36:25;;;;;;;8.38;5.55;;;25.60;59.70;;;;;;5075422;28;20112;-75
2023/07/12 09:38:51;;;;;;;8.63;5.10;;;25.40;60.20;;;;;;5075034;28;20086;-76
2023/07/12 09:41:24;;;;;;;8.90;6.05;;;25.50;59.70;;;;;;5074881;28;20561;-76
2023/07/12 09:43:58;;;;;;;8.80;4.95;;;25.60;60.30;;;;;;5075397;28;20067;-76
2023/07/12 09:46:36;;;;;;;7.65;5.50;;;25.90;60.40;;;;;;5075255;28;20074;-77
2023/07/12 09:49:08;;;;;;;9.00;5.40;;;26.10;59.40;;;;;;5075136;28;20127;-77
2023/07/12 09:52:03;;;;;;;9.43;5.40;;;26.30;57.70;;;;;;5075156;28;20115;-76
2023/07/12 09:54:47;;;;;;;10.38;5.45;;;26.50;56.50;;;;;;5075040;28;20023;-76
2023/07/12 09:57:17;;;;;;;9.55;5.10;;;26.60;55.90;;;;;;5076283;28;20407;-76
2023/07/12 09:59:54;;;;;;;6.63;4.80;;;26.50;55.70;;;;;;5074865;28;20020;-76
2023/07/12 10:02:36;;;;;;;7.22;5.00;;;26.60;55.30;;;;;;5074417;28;20031;-76
2023/07/12 10:05:11;;;;;;;7.72;5.18;;;26.50;55.30;;;;;;5074678;28;20170;-76
2023/07/12 10:07:46;;;;;;;11.70;4.80;;;26.60;55.40;;;;;;5074607;28;20408;-77
2023/07/12 10:10:57;;;;;;;9.80;4.85;;;26.60;56.00;;;;;;5076200;28;20034;-77
2023/07/12 10:13:44;;;;;;;8.52;5.40;;;26.50;55.40;;;;;;5036588;28;20063;-77
2023/07/12 10:16:17;;;;;;;7.93;5.00;;;26.80;56.30;;;;;;5075622;28;20098;-77
2023/07/12 10:18:44;;;;;;;7.25;4.35;;;26.80;56.00;;;;;;5074377;28;20047;-77
2023/07/12 10:21:17;;;;;;;8.68;5.20;;;27.30;55.70;;;;;;5074416;28;20514;-77
2023/07/12 10:23:48;;;;;;;11.15;4.53;;;27.70;54.20;;;;;;5074308;28;20473;-77
2023/07/12 10:26:15;;;;;;;7.82;5.13;;;27.90;52.30;;;;;;5074145;28;20025;-77
2023/07/12 10:28:45;;;;;;;8.18;4.22;;;28.00;52.00;;;;;;5074387;28;20024;-75
2023/07/12 10:31:30;;;;;;;14.00;5.10;;;28.00;52.20;;;;;;5074047;28;20021;-75
2023/07/12 10:34:08;;;;;;;6.83;4.13;;;28.20;51.10;;;;;;5074195;28;20461;-77
2023/07/12 10:36:35;;;;;;;11.90;4.90;;;28.20;50.90;;;;;;5074002;28;20353;-76
2023/07/12 10:39:04;;;;;;;8.20;4.68;;;28.10;50.70;;;;;;5067714;28;20032;-72
2023/07/12 10:41:41;;;;;;;11.45;5.20;;;27.90;50.50;;;;;;5062335;28;20060;-78
2023/07/12 10:44:25;;;;;;;7.25;4.75;;;27.80;50.70;;;;;;5060631;28;20051;-74
2023/07/12 10:46:59;;;;;;;9.18;4.32;;;27.70;52.10;;;;;;5058015;28;20070;-75
2023/07/12 10:49:57;;;;;;;8.32;4.90;;;27.50;53.10;;;;;;5051547;28;20029;-75
2023/07/12 10:52:54;;;;;;;10.18;4.63;;;27.20;53.40;;;;;;5062366;28;20120;-73
2023/07/12 10:55:39;;;;;;;8.43;4.65;;;26.70;53.50;;;;;;5080543;28;20485;-74
2023/07/12 10:58:18;;;;;;;12.18;4.80;;;26.30;55.30;;;;;;5059863;28;20076;-74
2023/07/12 11:00:58;;;;;;;9.70;4.70;;;26.30;56.70;;;;;;5074005;28;20021;-76
2023/07/12 11:03:47;;;;;;;7.88;4.82;;;26.70;54.70;;;;;;5060515;28;20020;-77
2023/07/12 11:06:24;;;;;;;9.25;5.50;;;27.00;54.20;;;;;;5063684;28;20381;-77
2023/07/12 11:08:59;;;;;;;8.95;4.63;;;27.30;53.00;;;;;;5062236;28;20481;-76
2023/07/12 11:11:34;;;;;;;11.93;4.95;;;27.70;49.90;;;;;;5061539;28;20176;-75
2023/07/12 11:14:11;;;;;;;;;;;27.90;49.10;;;;;;5060199;28;20025;-73
2023/07/12 11:16:44;;;;;;;10.38;4.68;;;28.00;49.70;;;;;;5062278;28;19905;-73
2023/07/12 11:19:37;;;;;;;7.82;3.85;;;28.40;48.30;;;;;;5055761;28;20515;-72
2023/07/12 11:22:12;;;;;;;8.38;4.95;;;28.70;49.00;;;;;;5053774;28;20048;-71
2023/07/12 11:25:01;;;;;;;;;;;28.50;47.20;;;;;;5055131;28;20013;-72
2023/07/12 11:27:41;;;;;;;5.82;3.80;;;28.10;47.60;;;;;;5049007;28;20419;-71
2023/07/12 11:30:12;;;;;;;10.60;4.60;;;27.90;47.90;;;;;;5054432;28;20021;-71
2023/07/12 11:32:39;;;;;;;7.50;4.53;;;28.00;47.90;;;;;;5054391;28;20040;-71
2023/07/12 11:35:17;;;;;;;7.43;4.43;;;28.30;48.60;;;;;;5054361;28;20021;-72
2023/07/12 11:37:48;;;;;;;8.27;4.80;;;28.60;49.10;;;;;;5054152;28;20029;-72
2023/07/12 11:40:21;;;;;;;10.13;4.53;;;29.00;45.80;;;;;;5054210;28;20040;-73
2023/07/12 11:42:47;;;;;;;11.75;5.18;;;29.10;45.80;;;;;;5054380;28;20032;-72
2023/07/12 11:45:17;;;;;;;6.00;4.40;;;29.10;45.10;;;;;;5053923;28;20021;-72
2023/07/12 11:47:45;;;;;;;9.65;4.28;;;28.90;44.00;;;;;;5054230;28;20025;-73
2023/07/12 11:50:24;;;;;;;5.82;4.43;;;29.00;45.00;;;;;;5054154;28;20021;-72
2023/07/12 11:52:51;;;;;;;6.80;4.57;;;29.10;45.80;;;;;;5054085;28;20025;-73
2023/07/12 11:55:20;;;;;;;7.57;4.32;;;29.20;43.90;;;;;;5053111;28;20074;-72
2023/07/12 11:57:48;;;;;;;10.65;4.78;;;29.00;42.70;;;;;;5054073;28;20070;-72
2023/07/12 12:00:26;;;;;;;6.32;4.30;;;28.50;45.10;;;;;;5053817;28;20057;-73
2023/07/12 12:02:54;;;;;;;11.70;5.03;;;29.00;44.40;;;;;;5053747;28;20489;-73
2023/07/12 12:05:25;;;;;;;10.70;7.50;;;29.20;43.00;;;;;;5053751;28;20032;-74
2023/07/12 12:07:53;;;;;;;9.20;7.15;;;28.90;43.70;;;;;;5053753;28;20021;-73
2023/07/12 12:10:26;;;;;;;6.50;4.28;;;28.80;44.90;;;;;;5052440;28;20029;-73
2023/07/12 12:12:52;;;;;;;8.93;4.57;;;29.10;43.90;;;;;;5053966;28;20029;-73
2023/07/12 12:15:30;;;;;;;12.73;5.10;;;29.20;41.20;;;;;;5053465;28;20017;-73
2023/07/12 12:17:56;;;;;;;7.82;4.80;;;28.80;41.40;;;;;;5053378;28;20155;-73
2023/07/12 12:20:28;;;;;;;6.80;5.13;;;28.50;42.50;;;;;;5053462;28;20507;-73
2023/07/12 12:23:12;;;;;;;6.43;5.05;;;28.40;42.90;;;;;;5053506;28;20039;-73
2023/07/12 12:25:46;;;;;;;8.43;5.30;;;28.60;40.50;;;;;;5053469;28;20060;-73
2023/07/12 12:28:33;;;;;;;5.90;4.85;;;28.40;41.30;;;;;;5053681;28;20037;-73
2023/07/12 12:31:17;;;;;;;7.25;5.25;;;28.50;40.80;;;;;;5054311;28;20021;-72
2023/07/12 12:33:48;;;;;;;8.23;5.38;;;28.20;41.50;;;;;;5053292;28;20452;-72
2023/07/12 12:36:28;;;;;;;8.13;4.97;;;28.10;42.20;;;;;;5053249;28;20104;-73
2023/07/12 12:39:18;;;;;;;7.93;5.00;;;27.90;42.90;;;;;;5053316;28;20090;-73
2023/07/12 12:41:51;;;;;;;10.18;5.20;;;27.90;42.20;;;;;;5053028;28;20357;-72
2023/07/12 12:44:18;;;;;;;7.95;5.15;;;27.70;42.40;;;;;;5053006;28;20083;-72
2023/07/12 12:46:48;;;;;;;8.30;5.00;;;27.80;42.30;;;;;;5053194;28;20420;-72
2023/07/12 12:49:23;;;;;;;10.85;5.00;;;27.80;43.90;;;;;;5053150;28;20068;-72
2023/07/12 12:51:50;;;;;;;9.55;5.40;;;28.30;42.80;;;;;;5053044;28;20032;-72
2023/07/12 12:54:16;;;;;;;8.13;4.85;;;28.70;39.70;;;;;;5052708;28;20045;-73
2023/07/12 12:56:42;;;;;;;9.15;4.68;;;29.00;39.60;;;;;;5052839;28;20056;-73